createdAt,value
2022-12-16T00:00:09.063Z,35.38
2022-12-16T00:02:36.313Z,30.75
2022-12-16T00:05:04.117Z,29.38
2022-12-16T00:07:31.013Z,25.20
2022-12-16T00:09:57.869Z,34.60
2022-12-16T00:12:24.788Z,33.58
2022-12-16T00:14:51.996Z,32.63
2022-12-16T00:17:19.009Z,31.90
2022-12-16T00:19:45.788Z,36.13
2022-12-16T00:22:12.621Z,39.17
2022-12-16T00:24:39.463Z,35.38
2022-12-16T00:27:06.431Z,37.45
2022-12-16T00:29:33.351Z,32.72
2022-12-16T00:32:00.404Z,35.55
2022-12-16T00:34:27.342Z,32.10
2022-12-16T00:36:54.197Z,30.35
2022-12-16T00:39:22.170Z,28.08
2022-12-16T00:41:49.058Z,33.63
2022-12-16T00:44:15.985Z,27.65
2022-12-16T00:46:42.858Z,30.58
2022-12-16T00:49:09.771Z,30.42
2022-12-16T00:51:36.606Z,31.60
2022-12-16T00:54:03.548Z,23.63
2022-12-16T00:56:30.462Z,27.23
2022-12-16T00:58:57.346Z,31.02
2022-12-16T01:01:24.320Z,25.85
2022-12-16T01:03:51.229Z,26.63
2022-12-16T01:06:18.564Z,27.10
2022-12-16T01:08:48.627Z,24.10
2022-12-16T01:11:17.478Z,28.27
2022-12-16T01:13:45.161Z,35.95
2022-12-16T01:16:12.045Z,25.30
2022-12-16T01:18:38.901Z,37.30
2022-12-16T01:21:07.618Z,36.95
2022-12-16T01:23:35.659Z,33.20
2022-12-16T01:26:02.858Z,26.05
2022-12-16T01:28:30.650Z,24.95
2022-12-16T01:31:01.720Z,26.48
2022-12-16T01:33:30.986Z,28.80
2022-12-16T01:36:08.230Z,24.00
2022-12-16T01:38:35.412Z,26.88
2022-12-16T01:41:02.461Z,28.95
2022-12-16T01:43:32.627Z,29.83
2022-12-16T01:46:07.506Z,25.83
2022-12-16T01:48:35.303Z,28.40
2022-12-16T01:51:14.603Z,24.38
2022-12-16T01:53:43.821Z,27.88
2022-12-16T01:56:13.239Z,22.73
2022-12-16T01:58:41.201Z,28.15
2022-12-16T02:01:09.169Z,29.00
2022-12-16T02:03:37.027Z,28.13
2022-12-16T02:06:06.235Z,21.85
2022-12-16T02:08:33.097Z,25.63
2022-12-16T02:11:28.816Z,34.35
2022-12-16T02:14:24.391Z,22.08
2022-12-16T02:17:07.658Z,38.38
2022-12-16T02:19:41.365Z,24.08
2022-12-16T02:22:35.716Z,23.70
2022-12-16T02:25:14.806Z,27.20
2022-12-16T02:28:11.469Z,30.80
2022-12-16T02:30:56.770Z,31.33
2022-12-16T02:33:55.515Z,26.70
2022-12-16T02:36:40.843Z,25.55
2022-12-16T02:39:26.490Z,34.55
2022-12-16T02:42:07.536Z,25.52
2022-12-16T02:44:54.604Z,26.10
2022-12-16T02:47:21.506Z,23.05
2022-12-16T02:49:50.917Z,29.10
2022-12-16T02:52:26.620Z,31.27
2022-12-16T02:54:58.393Z,22.45
2022-12-16T02:57:54.105Z,25.67
2022-12-16T03:00:22.722Z,23.27
2022-12-16T03:02:56.072Z,25.48
2022-12-16T03:05:35.820Z,29.73
2022-12-16T03:08:06.163Z,27.08
2022-12-16T03:10:41.526Z,27.30
2022-12-16T03:13:09.340Z,26.25
2022-12-16T03:15:36.921Z,30.30
2022-12-16T03:18:06.285Z,26.50
2022-12-16T03:21:03.892Z,24.45
2022-12-16T03:24:00.847Z,26.45
2022-12-16T03:26:35.669Z,23.85
2022-12-16T03:29:06.218Z,27.58
2022-12-16T03:31:36.141Z,27.77
2022-12-16T03:34:14.712Z,23.40
2022-12-16T03:36:42.526Z,25.02
2022-12-16T03:39:09.493Z,37.05
2022-12-16T03:41:37.158Z,30.83
2022-12-16T03:44:04.369Z,30.20
2022-12-16T03:46:31.249Z,29.08
2022-12-16T03:48:58.101Z,25.55
2022-12-16T03:51:24.957Z,23.15
2022-12-16T03:53:51.770Z,34.45
2022-12-16T03:56:18.679Z,28.05
2022-12-16T03:58:47.041Z,28.80
2022-12-16T04:01:14.020Z,23.80
2022-12-16T04:03:41.126Z,24.05
2022-12-16T04:06:08.210Z,22.92
2022-12-16T04:08:35.456Z,25.90
2022-12-16T04:11:20.872Z,22.08
2022-12-16T04:14:06.201Z,24.95
2022-12-16T04:16:51.684Z,24.25
2022-12-16T04:19:45.789Z,26.17
2022-12-16T04:22:46.165Z,22.10
2022-12-16T04:25:34.863Z,24.73
2022-12-16T04:28:02.097Z,17.05
2022-12-16T04:30:34.606Z,21.77
2022-12-16T04:36:06.487Z,27.10
2022-12-16T04:38:51.788Z,25.75
2022-12-16T04:41:38.115Z,23.05
2022-12-16T04:44:24.326Z,23.63
2022-12-16T04:47:09.792Z,24.73
2022-12-16T04:49:55.417Z,24.65
2022-12-16T04:52:41.146Z,19.80
2022-12-16T04:55:27.432Z,25.77
2022-12-16T04:58:14.506Z,22.67
2022-12-16T05:01:00.561Z,21.65
2022-12-16T05:03:47.010Z,19.65
2022-12-16T05:06:32.789Z,23.83
2022-12-16T05:09:18.355Z,26.63
2022-12-16T05:12:04.344Z,22.42
2022-12-16T05:14:49.832Z,20.35
2022-12-16T05:17:35.588Z,22.23
2022-12-16T05:20:21.343Z,22.98
2022-12-16T05:23:06.631Z,26.17
2022-12-16T05:25:51.971Z,23.70
2022-12-16T05:28:37.701Z,19.80
2022-12-16T05:31:23.353Z,22.33
2022-12-16T05:34:08.713Z,22.25
2022-12-16T05:36:54.477Z,21.55
2022-12-16T05:39:47.530Z,18.73
2022-12-16T05:42:33.171Z,22.58
2022-12-16T05:45:18.725Z,21.48
2022-12-16T05:48:11.509Z,16.38
2022-12-16T05:50:57.168Z,18.35
2022-12-16T05:53:42.599Z,18.17
2022-12-16T05:56:27.926Z,25.30
2022-12-16T05:59:13.304Z,27.30
2022-12-16T06:01:58.496Z,19.38
2022-12-16T06:04:44.021Z,17.60
2022-12-16T06:07:29.238Z,21.23
2022-12-16T06:10:14.761Z,23.60
2022-12-16T06:13:00.181Z,16.95
2022-12-16T06:15:45.446Z,19.00
2022-12-16T06:18:30.902Z,19.35
2022-12-16T06:21:16.213Z,19.27
2022-12-16T06:24:01.427Z,18.35
2022-12-16T06:26:46.917Z,22.20
2022-12-16T06:29:32.643Z,25.40
2022-12-16T06:32:18.184Z,21.15
2022-12-16T06:35:03.534Z,22.30
2022-12-16T06:37:48.878Z,18.55
2022-12-16T06:40:34.650Z,20.60
2022-12-16T06:43:20.249Z,18.58
2022-12-16T06:46:19.623Z,21.15
2022-12-16T06:49:05.196Z,21.27
2022-12-16T06:51:50.712Z,23.88
2022-12-16T06:54:35.968Z,24.30
2022-12-16T06:57:21.333Z,23.80
2022-12-16T07:00:06.563Z,16.92
2022-12-16T07:02:52.513Z,18.67
2022-12-16T07:05:38.545Z,21.02
2022-12-16T07:08:23.907Z,16.58
2022-12-16T07:11:16.527Z,20.67
2022-12-16T07:14:03.156Z,27.83
2022-12-16T07:16:48.720Z,18.73
2022-12-16T07:19:34.796Z,18.35
2022-12-16T07:22:20.230Z,25.60
2022-12-16T07:25:05.856Z,22.02
2022-12-16T07:27:51.322Z,13.57
2022-12-16T07:30:36.924Z,22.13
2022-12-16T07:33:22.536Z,16.48
2022-12-16T07:36:07.838Z,26.77
2022-12-16T07:38:53.203Z,24.55
2022-12-16T07:41:38.757Z,22.20
2022-12-16T07:44:24.192Z,19.88
2022-12-16T07:47:09.804Z,26.00
2022-12-16T07:49:55.649Z,27.85
2022-12-16T07:52:41.999Z,21.02
2022-12-16T07:55:27.718Z,27.55
2022-12-16T07:58:13.387Z,26.60
2022-12-16T08:00:58.937Z,25.95
2022-12-16T08:03:44.793Z,25.88
2022-12-16T08:06:30.897Z,25.17
2022-12-16T08:09:16.514Z,25.30
2022-12-16T08:12:01.854Z,24.73
2022-12-16T08:14:47.244Z,31.38
2022-12-16T08:17:32.551Z,21.75
2022-12-16T08:20:17.975Z,17.75
2022-12-16T08:23:03.629Z,27.08
2022-12-16T08:25:49.199Z,23.15
2022-12-16T08:28:34.882Z,30.70
2022-12-16T08:31:20.245Z,31.00
2022-12-16T08:34:05.636Z,37.70
2022-12-16T08:36:51.199Z,30.25
2022-12-16T08:39:36.783Z,20.08
2022-12-16T08:42:22.442Z,19.55
2022-12-16T08:45:07.913Z,27.75
2022-12-16T08:47:54.457Z,22.02
2022-12-16T08:50:41.559Z,28.58
2022-12-16T08:53:27.833Z,24.52
2022-12-16T08:56:13.157Z,20.77
2022-12-16T08:59:09.378Z,30.60
2022-12-16T09:01:54.883Z,28.20
2022-12-16T09:04:40.924Z,23.08
2022-12-16T09:07:26.163Z,25.67
2022-12-16T09:10:11.665Z,26.38
2022-12-16T09:12:57.023Z,25.42
2022-12-16T09:15:42.218Z,25.52
2022-12-16T09:18:27.880Z,25.50
2022-12-16T09:21:13.284Z,29.08
2022-12-16T09:23:58.869Z,24.58
2022-12-16T09:26:45.755Z,25.33
2022-12-16T09:29:31.070Z,23.85
2022-12-16T09:32:16.593Z,22.08
2022-12-16T09:35:02.317Z,40.88
2022-12-16T09:37:47.684Z,23.67
2022-12-16T09:40:35.233Z,26.02
2022-12-16T09:43:58.987Z,31.30
2022-12-16T09:47:22.295Z,28.08
2022-12-16T09:50:09.825Z,30.70
2022-12-16T09:53:08.366Z,22.65
2022-12-16T09:55:59.673Z,29.15
2022-12-16T09:58:48.564Z,21.30
2022-12-16T10:01:34.418Z,26.75
2022-12-16T10:04:20.230Z,25.25
2022-12-16T10:07:07.980Z,22.27
2022-12-16T10:10:24.983Z,23.48
2022-12-16T10:13:41.267Z,24.77
2022-12-16T10:16:32.556Z,22.38
2022-12-16T10:19:36.810Z,22.60
2022-12-16T10:22:25.054Z,27.70
2022-12-16T10:25:10.343Z,20.58
2022-12-16T10:28:06.998Z,30.90
2022-12-16T10:30:55.679Z,24.70
2022-12-16T10:33:43.889Z,25.38
2022-12-16T10:36:37.075Z,24.58
2022-12-16T10:39:40.811Z,21.15
2022-12-16T10:42:50.524Z,24.00
2022-12-16T10:45:47.636Z,22.90
2022-12-16T10:48:33.574Z,18.23
2022-12-16T10:51:19.209Z,20.58
2022-12-16T10:54:05.743Z,19.65
2022-12-16T10:57:14.491Z,22.15
2022-12-16T11:00:20.393Z,24.55
2022-12-16T11:03:06.154Z,20.83
2022-12-16T11:05:53.761Z,38.35
2022-12-16T11:08:51.479Z,22.00
2022-12-16T11:11:48.201Z,23.08
2022-12-16T11:14:59.179Z,21.85
2022-12-16T11:17:48.944Z,21.77
2022-12-16T11:20:43.213Z,32.20
2022-12-16T11:23:45.001Z,24.30
2022-12-16T11:26:38.018Z,23.33
2022-12-16T11:29:25.203Z,24.63
2022-12-16T11:32:19.522Z,22.75
2022-12-16T11:35:10.002Z,19.42
2022-12-16T11:37:57.376Z,18.92
2022-12-16T11:40:43.471Z,20.50
2022-12-16T11:43:32.584Z,23.92
2022-12-16T11:46:20.554Z,25.92
2022-12-16T11:49:25.001Z,18.83
2022-12-16T11:52:35.908Z,26.52
2022-12-16T11:56:03.550Z,31.17
2022-12-16T11:59:07.088Z,33.78
2022-12-16T12:02:01.730Z,22.40
2022-12-16T12:04:47.346Z,25.08
2022-12-16T12:07:45.430Z,18.80
2022-12-16T12:11:04.379Z,19.35
2022-12-16T12:14:33.858Z,15.70
2022-12-16T12:17:27.448Z,17.45
2022-12-16T12:20:33.367Z,24.45
2022-12-16T12:23:25.271Z,14.35
2022-12-16T12:26:31.809Z,23.85
2022-12-16T12:29:36.004Z,18.92
2022-12-16T12:32:59.051Z,27.98
2022-12-16T12:36:03.928Z,21.27
2022-12-16T12:38:49.265Z,14.05
2022-12-16T12:41:46.732Z,17.45
2022-12-16T12:44:59.563Z,14.80
2022-12-16T12:47:46.414Z,15.10
2022-12-16T12:50:38.417Z,12.82
2022-12-16T12:53:45.973Z,17.70
2022-12-16T12:57:05.379Z,19.27
2022-12-16T13:00:18.187Z,19.10
2022-12-16T13:03:25.521Z,15.37
2022-12-16T13:06:11.801Z,21.20
2022-12-16T13:09:00.493Z,28.30
2022-12-16T13:11:46.257Z,30.05
2022-12-16T13:15:10.123Z,20.67
2022-12-16T13:18:18.266Z,18.30
2022-12-16T13:21:05.131Z,28.80
2022-12-16T13:23:50.844Z,23.75
2022-12-16T13:26:39.195Z,16.73
2022-12-16T13:29:38.522Z,20.98
2022-12-16T13:32:23.847Z,21.65
2022-12-16T13:35:24.184Z,18.33
2022-12-16T13:38:14.901Z,20.60
2022-12-16T13:41:21.286Z,20.73
2022-12-16T13:44:10.198Z,38.75
2022-12-16T13:47:02.095Z,48.40
2022-12-16T13:50:09.720Z,98.63
2022-12-16T13:53:15.279Z,87.68
2022-12-16T13:56:18.180Z,78.07
2022-12-16T13:59:12.593Z,66.80
2022-12-16T14:02:13.362Z,80.88
2022-12-16T14:05:05.668Z,82.05
2022-12-16T14:07:53.312Z,37.22
2022-12-16T14:10:50.232Z,65.97
2022-12-16T14:14:02.044Z,49.05
2022-12-16T14:16:52.336Z,43.65
2022-12-16T14:20:00.436Z,35.05
2022-12-16T14:23:04.910Z,37.38
2022-12-16T14:25:50.247Z,42.08
2022-12-16T14:28:49.446Z,54.35
2022-12-16T14:31:52.247Z,52.85
2022-12-16T14:34:50.427Z,40.50
2022-12-16T14:37:38.943Z,32.40
2022-12-16T14:40:57.156Z,40.60
2022-12-16T14:43:44.375Z,42.72
2022-12-16T14:46:50.337Z,71.55
2022-12-16T14:49:43.377Z,89.22
2022-12-16T14:52:43.416Z,114.80
2022-12-16T14:55:48.150Z,116.35
2022-12-16T14:58:37.790Z,82.90
2022-12-16T15:01:33.412Z,83.30
2022-12-16T15:04:20.332Z,46.15
2022-12-16T15:07:08.220Z,33.72
2022-12-16T15:10:00.524Z,21.23
2022-12-16T15:12:51.495Z,37.22
2022-12-16T15:15:53.164Z,33.60
2022-12-16T15:19:01.957Z,57.40
2022-12-16T15:21:47.973Z,67.20
2022-12-16T15:24:38.315Z,79.03
2022-12-16T15:27:43.859Z,67.72
2022-12-16T15:31:02.192Z,53.08
2022-12-16T15:33:56.171Z,32.25
2022-12-16T15:36:47.616Z,30.05
2022-12-16T15:39:55.404Z,26.42
2022-12-16T15:42:45.302Z,30.27
2022-12-16T15:45:50.978Z,35.88
2022-12-16T15:48:45.112Z,37.13
2022-12-16T15:51:45.236Z,34.42
2022-12-16T15:54:48.614Z,34.13
2022-12-16T15:57:52.545Z,29.02
2022-12-16T16:00:42.557Z,36.10
2022-12-16T16:03:48.804Z,33.40
2022-12-16T16:06:42.340Z,33.03
2022-12-16T16:09:50.867Z,29.48
2022-12-16T16:12:38.305Z,28.63
2022-12-16T16:15:25.522Z,30.38
2022-12-16T16:18:29.176Z,29.33
2022-12-16T16:21:14.724Z,27.73
2022-12-16T16:24:00.278Z,31.25
2022-12-16T16:26:46.859Z,23.90
2022-12-16T16:29:32.439Z,35.55
2022-12-16T16:32:17.877Z,26.48
2022-12-16T16:35:03.273Z,28.33
2022-12-16T16:37:48.812Z,33.53
2022-12-16T16:40:49.873Z,31.50
2022-12-16T16:43:36.244Z,27.50
2022-12-16T16:46:32.466Z,29.55
2022-12-16T16:49:18.627Z,48.42
2022-12-16T16:52:06.003Z,44.05
2022-12-16T16:54:51.600Z,47.58
2022-12-16T16:57:37.246Z,61.00
2022-12-16T17:00:23.506Z,55.78
2022-12-16T17:03:09.053Z,29.05
2022-12-16T17:05:54.878Z,26.83
2022-12-16T17:08:40.238Z,29.08
2022-12-16T17:11:35.856Z,28.55
2022-12-16T17:14:21.382Z,33.78
2022-12-16T17:17:07.079Z,31.80
2022-12-16T17:19:52.690Z,26.75
2022-12-16T17:22:38.267Z,31.17
2022-12-16T17:25:24.039Z,33.88
2022-12-16T17:28:09.426Z,32.03
2022-12-16T17:30:54.864Z,24.85
2022-12-16T17:33:40.610Z,26.38
2022-12-16T17:36:32.085Z,22.83
2022-12-16T17:39:17.807Z,27.58
2022-12-16T17:42:04.317Z,18.30
2022-12-16T17:44:49.984Z,17.58
2022-12-16T17:47:35.854Z,21.88
2022-12-16T17:50:22.202Z,25.42
2022-12-16T17:53:08.816Z,25.92
2022-12-16T17:55:54.433Z,38.35
2022-12-16T17:58:40.079Z,33.70
2022-12-16T18:01:26.007Z,20.77
2022-12-16T18:04:11.820Z,33.72
2022-12-16T18:06:57.307Z,34.00
2022-12-16T18:09:42.979Z,35.45
2022-12-16T18:12:28.283Z,35.95
2022-12-16T18:15:13.743Z,35.33
2022-12-16T18:17:59.871Z,31.70
2022-12-16T18:20:45.371Z,32.90
2022-12-16T18:23:31.226Z,39.00
2022-12-16T18:26:22.431Z,45.20
2022-12-16T18:29:07.738Z,41.88
2022-12-16T18:31:53.216Z,49.63
2022-12-16T18:34:38.710Z,42.25
2022-12-16T18:37:24.524Z,30.20
2022-12-16T18:40:10.234Z,29.60
2022-12-16T18:42:55.831Z,40.05
2022-12-16T18:45:41.102Z,35.88
2022-12-16T18:48:26.573Z,39.83
2022-12-16T18:51:16.968Z,32.75
2022-12-16T18:54:02.610Z,43.85
2022-12-16T18:56:48.207Z,35.10
2022-12-16T18:59:33.592Z,33.15
2022-12-16T19:02:19.262Z,35.83
2022-12-16T19:05:05.246Z,25.88
2022-12-16T19:07:50.486Z,33.65
2022-12-16T19:10:37.717Z,31.15
2022-12-16T19:13:22.999Z,34.40
2022-12-16T19:16:13.224Z,41.65
2022-12-16T19:18:58.662Z,32.83
2022-12-16T19:24:49.238Z,37.10
2022-12-16T19:27:34.480Z,39.90
2022-12-16T19:30:19.687Z,42.05
2022-12-16T19:33:08.846Z,35.83
2022-12-16T19:35:54.655Z,43.10
2022-12-16T19:38:42.454Z,35.63
2022-12-16T19:41:35.737Z,34.42
2022-12-16T19:44:22.523Z,36.50
2022-12-16T19:47:09.392Z,33.92
2022-12-16T19:49:56.141Z,34.33
2022-12-16T19:52:42.253Z,35.65
2022-12-16T19:55:27.969Z,40.08
2022-12-16T19:58:13.364Z,39.17
2022-12-16T20:00:58.809Z,56.55
2022-12-16T20:03:45.122Z,56.97
2022-12-16T20:06:30.994Z,46.40
2022-12-16T20:09:16.289Z,32.90
2022-12-16T20:12:02.252Z,30.40
2022-12-16T20:14:48.501Z,45.90
2022-12-16T20:17:33.916Z,32.03
2022-12-16T20:20:19.650Z,75.25
2022-12-16T20:23:05.130Z,35.13
2022-12-16T20:25:50.760Z,24.70
2022-12-16T20:28:37.080Z,26.55
2022-12-16T20:31:23.093Z,38.90
2022-12-16T20:34:12.791Z,28.73
2022-12-16T20:36:58.718Z,30.67
2022-12-16T20:39:49.505Z,28.13
2022-12-16T20:42:38.735Z,39.70
2022-12-16T20:45:24.381Z,33.70
2022-12-16T20:48:11.690Z,33.70
2022-12-16T20:50:57.105Z,32.78
2022-12-16T20:53:43.041Z,34.47
2022-12-16T20:56:28.369Z,35.83
2022-12-16T20:59:13.657Z,35.22
2022-12-16T21:02:22.200Z,51.38
2022-12-16T21:05:04.747Z,44.97
2022-12-16T21:07:50.321Z,49.08
2022-12-16T21:10:36.141Z,34.13
2022-12-16T21:13:27.931Z,43.67
2022-12-16T21:14:28.200Z,45.40
2022-12-16T21:16:15.598Z,55.78
2022-12-16T21:19:01.562Z,50.95
2022-12-16T21:21:47.325Z,45.45
2022-12-16T21:24:32.586Z,48.80
2022-12-16T21:27:18.149Z,37.20
2022-12-16T21:30:03.895Z,37.47
2022-12-16T21:32:49.554Z,42.50
2022-12-16T21:35:36.559Z,34.05
2022-12-16T21:38:26.584Z,36.25
2022-12-16T21:41:12.992Z,33.10
2022-12-16T21:43:58.939Z,34.83
2022-12-16T21:46:45.037Z,27.83
2022-12-16T21:49:30.339Z,39.83
2022-12-16T21:52:29.450Z,40.05
2022-12-16T21:55:14.744Z,40.22
2022-12-16T21:58:02.143Z,32.72
2022-12-16T22:00:47.900Z,33.55
2022-12-16T22:03:33.420Z,34.38
2022-12-16T22:06:19.177Z,33.55
2022-12-16T22:09:04.968Z,32.75
2022-12-16T22:11:50.311Z,35.17
2022-12-16T22:14:36.813Z,31.42
2022-12-16T22:17:22.527Z,34.53
2022-12-16T22:20:08.538Z,30.10
2022-12-16T22:22:55.101Z,30.90
2022-12-16T22:25:41.677Z,26.83
2022-12-16T22:28:27.075Z,36.38
2022-12-16T22:31:15.820Z,20.23
2022-12-16T22:34:01.996Z,37.13
2022-12-16T22:36:47.818Z,31.33
2022-12-16T22:39:33.375Z,33.67
2022-12-16T22:42:18.909Z,28.63
2022-12-16T22:45:04.772Z,29.20
2022-12-16T22:47:50.790Z,38.38
2022-12-16T22:50:37.329Z,33.15
2022-12-16T22:53:22.895Z,32.08
2022-12-16T22:56:12.641Z,31.13
2022-12-16T22:58:58.321Z,35.42
2022-12-16T23:01:48.602Z,32.00
2022-12-16T23:04:33.858Z,31.25
2022-12-16T23:07:19.535Z,34.75
2022-12-16T23:10:05.092Z,33.10
2022-12-16T23:12:50.703Z,33.85
2022-12-16T23:15:37.754Z,33.05
2022-12-16T23:18:22.990Z,29.92
2022-12-16T23:21:09.664Z,28.15
2022-12-16T23:23:56.805Z,27.70
2022-12-16T23:26:42.802Z,31.00
2022-12-16T23:29:28.453Z,30.00
2022-12-16T23:32:13.729Z,33.72
2022-12-16T23:34:58.952Z,25.85
2022-12-16T23:37:45.231Z,27.95
2022-12-16T23:40:30.688Z,27.88
2022-12-16T23:43:16.470Z,37.33
2022-12-16T23:46:03.123Z,29.30
2022-12-16T23:48:48.808Z,28.95
2022-12-16T23:51:34.059Z,28.50
2022-12-16T23:54:19.224Z,23.60
2022-12-16T23:57:04.630Z,26.20
2022-12-16T23:59:50.030Z,23.63
